createdAt,value
2023-01-20T00:00:27.484Z,2.54
2023-01-20T00:02:54.271Z,2.62
2023-01-20T00:05:21.027Z,2.59
2023-01-20T00:07:47.810Z,2.66
2023-01-20T00:10:14.727Z,2.62
2023-01-20T00:12:41.526Z,2.63
2023-01-20T00:15:10.258Z,2.53
2023-01-20T00:17:37.093Z,2.66
2023-01-20T00:20:05.502Z,2.66
2023-01-20T00:22:32.291Z,2.70
2023-01-20T00:24:59.019Z,2.68
2023-01-20T00:27:25.771Z,2.68
2023-01-20T00:29:53.195Z,2.63
2023-01-20T00:32:19.996Z,2.57
2023-01-20T00:34:46.741Z,2.64
2023-01-20T00:37:15.030Z,2.56
2023-01-20T00:39:41.847Z,2.51
2023-01-20T00:42:08.625Z,2.62
2023-01-20T00:44:35.412Z,2.47
2023-01-20T00:47:02.219Z,2.42
2023-01-20T00:49:28.980Z,2.48
2023-01-20T00:51:55.728Z,2.45
2023-01-20T00:54:22.494Z,2.44
2023-01-20T00:56:49.225Z,2.52
2023-01-20T00:59:16.332Z,2.56
2023-01-20T01:01:43.312Z,2.57
2023-01-20T01:04:10.055Z,2.51
2023-01-20T01:06:36.832Z,2.56
2023-01-20T01:09:03.735Z,2.51
2023-01-20T01:11:30.459Z,2.57
2023-01-20T01:14:00.321Z,2.57
2023-01-20T01:16:27.203Z,2.53
2023-01-20T01:18:54.963Z,2.51
2023-01-20T01:21:22.352Z,2.65
2023-01-20T01:23:49.159Z,2.68
2023-01-20T01:26:15.956Z,2.68
2023-01-20T01:28:42.856Z,2.60
2023-01-20T01:31:10.499Z,2.42
2023-01-20T01:33:37.330Z,2.25
2023-01-20T01:36:04.989Z,2.22
2023-01-20T01:38:32.081Z,2.14
2023-01-20T01:40:59.011Z,2.12
2023-01-20T01:43:34.458Z,2.06
2023-01-20T01:46:02.722Z,2.05
2023-01-20T01:48:37.258Z,1.85
2023-01-20T01:51:18.548Z,1.76
2023-01-20T01:54:12.267Z,1.78
2023-01-20T01:56:41.777Z,1.80
2023-01-20T01:59:09.397Z,1.93
2023-01-20T02:01:38.883Z,1.94
2023-01-20T02:04:10.802Z,1.90
2023-01-20T02:06:40.894Z,1.97
2023-01-20T02:09:08.324Z,1.99
2023-01-20T02:11:41.572Z,2.12
2023-01-20T02:14:08.694Z,2.18
2023-01-20T02:16:41.299Z,2.16
2023-01-20T02:19:38.549Z,2.29
2023-01-20T02:22:11.324Z,2.19
2023-01-20T02:25:19.814Z,2.18
2023-01-20T02:28:18.317Z,2.19
2023-01-20T02:31:10.950Z,2.21
2023-01-20T02:33:41.736Z,2.20
2023-01-20T02:36:15.250Z,2.23
2023-01-20T02:39:04.669Z,2.23
2023-01-20T02:42:02.676Z,2.26
2023-01-20T02:44:38.239Z,2.49
2023-01-20T02:47:14.471Z,2.37
2023-01-20T02:49:59.318Z,2.46
2023-01-20T02:52:28.336Z,2.37
2023-01-20T02:54:57.640Z,2.20
2023-01-20T02:57:40.653Z,2.11
2023-01-20T03:00:12.730Z,2.31
2023-01-20T03:02:40.566Z,2.20
2023-01-20T03:05:14.739Z,2.10
2023-01-20T03:07:45.367Z,2.00
2023-01-20T03:10:16.431Z,2.05
2023-01-20T03:12:51.584Z,2.08
2023-01-20T03:15:21.603Z,2.20
2023-01-20T03:17:48.382Z,2.08
2023-01-20T03:20:15.757Z,2.11
2023-01-20T03:22:42.578Z,1.97
2023-01-20T03:25:11.000Z,2.09
2023-01-20T03:27:37.812Z,2.00
2023-01-20T03:30:12.097Z,2.20
2023-01-20T03:32:39.465Z,2.18
2023-01-20T03:35:06.426Z,2.24
2023-01-20T03:37:33.214Z,2.22
2023-01-20T03:40:01.828Z,2.27
2023-01-20T03:42:33.932Z,2.21
2023-01-20T03:45:07.025Z,2.31
2023-01-20T03:47:34.508Z,2.39
2023-01-20T03:50:09.957Z,2.30
2023-01-20T03:52:48.461Z,2.28
2023-01-20T03:55:26.649Z,2.11
2023-01-20T03:57:56.569Z,2.13
2023-01-20T04:00:25.363Z,2.17
2023-01-20T04:02:53.364Z,2.00
2023-01-20T04:05:20.179Z,1.87
2023-01-20T04:07:47.031Z,1.88
2023-01-20T04:10:16.301Z,1.99
2023-01-20T04:12:43.198Z,1.83
2023-01-20T04:15:10.604Z,1.74
2023-01-20T04:17:37.371Z,1.70
2023-01-20T04:20:10.521Z,1.64
2023-01-20T04:22:48.404Z,1.66
2023-01-20T04:25:22.595Z,1.59
2023-01-20T04:27:49.482Z,1.64
2023-01-20T04:30:16.602Z,1.67
2023-01-20T04:32:43.336Z,1.67
2023-01-20T04:35:14.315Z,1.64
2023-01-20T04:37:41.744Z,1.63
2023-01-20T04:40:09.915Z,1.58
2023-01-20T04:42:37.548Z,1.62
2023-01-20T04:45:05.021Z,1.64
2023-01-20T04:47:32.760Z,1.60
2023-01-20T04:49:59.808Z,1.66
2023-01-20T04:52:26.743Z,1.63
2023-01-20T04:54:53.416Z,1.64
2023-01-20T04:57:20.383Z,1.63
2023-01-20T04:59:47.173Z,1.74
2023-01-20T05:02:14.013Z,1.67
2023-01-20T05:04:40.884Z,1.65
2023-01-20T05:07:07.698Z,1.68
2023-01-20T05:09:37.429Z,1.63
2023-01-20T05:12:04.691Z,1.65
2023-01-20T05:14:31.462Z,1.63
2023-01-20T05:16:58.417Z,1.60
2023-01-20T05:19:25.228Z,1.57
2023-01-20T05:21:52.012Z,1.62
2023-01-20T05:24:18.931Z,1.58
2023-01-20T05:26:45.685Z,1.70
2023-01-20T05:29:12.455Z,1.74
2023-01-20T05:31:43.340Z,1.63
2023-01-20T05:34:11.144Z,1.71
2023-01-20T05:36:38.032Z,1.63
2023-01-20T05:39:04.841Z,1.72
2023-01-20T05:41:31.629Z,1.60
2023-01-20T05:43:58.422Z,1.57
2023-01-20T05:46:25.251Z,1.57
2023-01-20T05:48:52.097Z,1.59
2023-01-20T05:51:18.928Z,1.57
2023-01-20T05:53:45.828Z,1.57
2023-01-20T05:56:15.991Z,1.58
2023-01-20T05:58:43.277Z,1.59
2023-01-20T06:01:12.596Z,1.60
2023-01-20T06:03:39.924Z,1.54
2023-01-20T06:06:09.116Z,1.49
2023-01-20T06:08:36.114Z,1.45
2023-01-20T06:11:03.039Z,1.47
2023-01-20T06:13:29.995Z,1.43
2023-01-20T06:15:56.915Z,1.48
2023-01-20T06:18:24.535Z,1.53
2023-01-20T06:20:51.466Z,1.47
2023-01-20T06:23:18.300Z,1.45
2023-01-20T06:25:44.985Z,1.50
2023-01-20T06:28:11.816Z,1.70
2023-01-20T06:30:38.767Z,1.77
2023-01-20T06:33:10.576Z,1.67
2023-01-20T06:35:38.192Z,1.54
2023-01-20T06:38:05.029Z,1.55
2023-01-20T06:40:31.975Z,1.61
2023-01-20T06:42:59.114Z,1.45
2023-01-20T06:45:25.920Z,1.53
2023-01-20T06:47:52.721Z,1.38
2023-01-20T06:50:19.638Z,1.47
2023-01-20T06:52:46.416Z,1.41
2023-01-20T06:55:13.557Z,1.36
2023-01-20T06:57:40.554Z,1.36
2023-01-20T07:00:08.156Z,1.33
2023-01-20T07:02:34.975Z,1.42
2023-01-20T07:05:02.569Z,1.29
2023-01-20T07:07:29.382Z,1.25
2023-01-20T07:09:56.100Z,1.19
2023-01-20T07:12:22.844Z,1.15
2023-01-20T07:14:49.662Z,1.09
2023-01-20T07:17:16.556Z,1.03
2023-01-20T07:19:43.362Z,1.03
2023-01-20T07:22:10.152Z,1.09
2023-01-20T07:24:36.883Z,1.12
2023-01-20T07:27:03.679Z,1.17
2023-01-20T07:29:30.455Z,1.16
2023-01-20T07:31:57.367Z,1.12
2023-01-20T07:34:24.463Z,1.19
2023-01-20T07:36:54.246Z,1.18
2023-01-20T07:39:21.975Z,1.15
2023-01-20T07:41:49.770Z,1.10
2023-01-20T07:44:16.880Z,1.16
2023-01-20T07:46:43.615Z,1.15
2023-01-20T07:49:12.350Z,1.13
2023-01-20T07:51:40.011Z,1.16
2023-01-20T07:54:06.992Z,1.16
2023-01-20T07:56:33.798Z,1.14
2023-01-20T07:59:00.665Z,1.11
2023-01-20T08:01:29.930Z,1.09
2023-01-20T08:03:58.123Z,1.17
2023-01-20T08:06:26.405Z,1.12
2023-01-20T08:08:53.561Z,1.16
2023-01-20T08:11:21.798Z,1.17
2023-01-20T08:13:49.202Z,1.19
2023-01-20T08:16:17.644Z,1.25
2023-01-20T08:18:44.981Z,1.32
2023-01-20T08:21:19.120Z,1.26
2023-01-20T08:23:45.957Z,1.22
2023-01-20T08:26:12.884Z,1.18
2023-01-20T08:28:39.664Z,1.12
2023-01-20T08:31:18.565Z,1.09
2023-01-20T08:33:45.645Z,1.18
2023-01-20T08:36:15.326Z,1.17
2023-01-20T08:38:42.737Z,1.10
2023-01-20T08:41:12.180Z,1.10
2023-01-20T08:43:39.063Z,1.08
2023-01-20T08:46:08.397Z,1.07
2023-01-20T08:48:36.460Z,1.11
2023-01-20T08:51:07.833Z,1.14
2023-01-20T08:53:35.014Z,1.06
2023-01-20T08:56:03.847Z,1.04
2023-01-20T08:58:31.230Z,1.05
2023-01-20T09:00:58.241Z,1.01
2023-01-20T09:03:25.391Z,0.95
2023-01-20T09:05:52.629Z,0.97
2023-01-20T09:08:20.089Z,1.01
2023-01-20T09:10:47.290Z,0.97
2023-01-20T09:13:14.193Z,0.98
2023-01-20T09:15:41.080Z,1.04
2023-01-20T09:18:07.956Z,1.10
2023-01-20T09:20:34.982Z,1.13
2023-01-20T09:23:03.172Z,1.11
2023-01-20T09:25:30.094Z,1.14
2023-01-20T09:28:00.654Z,1.20
2023-01-20T09:30:27.894Z,1.24
2023-01-20T09:32:56.493Z,1.20
2023-01-20T09:35:23.331Z,1.19
2023-01-20T09:38:08.628Z,1.19
2023-01-20T09:40:59.768Z,1.23
2023-01-20T09:43:56.383Z,1.27
2023-01-20T09:47:07.358Z,1.19
2023-01-20T09:50:06.563Z,1.31
2023-01-20T09:52:55.885Z,1.30
2023-01-20T09:55:28.844Z,1.29
2023-01-20T09:58:15.530Z,1.33
2023-01-20T10:00:48.029Z,1.33
2023-01-20T10:03:16.846Z,1.42
2023-01-20T10:05:44.946Z,1.39
2023-01-20T10:08:24.331Z,1.55
2023-01-20T10:10:57.071Z,1.80
2023-01-20T10:13:33.602Z,1.87
2023-01-20T10:16:06.396Z,1.85
2023-01-20T10:18:53.162Z,1.92
2023-01-20T10:21:26.136Z,1.89
2023-01-20T10:24:13.602Z,1.86
2023-01-20T10:26:44.757Z,1.89
2023-01-20T10:29:17.425Z,1.77
2023-01-20T10:31:49.896Z,1.82
2023-01-20T10:34:20.278Z,1.82
2023-01-20T10:37:01.251Z,2.00
2023-01-20T10:39:46.558Z,2.08
2023-01-20T10:42:15.649Z,1.98
2023-01-20T10:44:43.098Z,1.98
2023-01-20T10:47:20.208Z,1.98
2023-01-20T10:50:05.665Z,1.95
2023-01-20T10:53:06.355Z,2.03
2023-01-20T10:55:53.892Z,2.06
2023-01-20T10:58:29.567Z,2.06
2023-01-20T11:00:58.328Z,2.10
2023-01-20T11:03:25.586Z,2.15
2023-01-20T11:05:52.899Z,2.07
2023-01-20T11:08:25.396Z,2.12
2023-01-20T11:10:55.532Z,2.10
2023-01-20T11:13:22.873Z,2.13
2023-01-20T11:16:02.815Z,2.15
2023-01-20T11:18:30.965Z,2.25
2023-01-20T11:21:05.634Z,2.30
2023-01-20T11:23:38.362Z,2.37
2023-01-20T11:26:10.209Z,2.40
2023-01-20T11:28:49.021Z,2.38
2023-01-20T11:31:16.322Z,2.46
2023-01-20T11:34:19.888Z,2.50
2023-01-20T11:36:46.695Z,2.55
2023-01-20T11:39:36.644Z,2.57
2023-01-20T11:42:14.495Z,2.61
2023-01-20T11:45:19.781Z,2.70
2023-01-20T11:48:00.709Z,2.80
2023-01-20T11:50:35.186Z,2.95
2023-01-20T11:53:32.616Z,3.02
2023-01-20T11:56:16.431Z,2.98
2023-01-20T11:58:51.536Z,2.97
2023-01-20T12:01:23.859Z,3.03
2023-01-20T12:04:10.218Z,3.26
2023-01-20T12:06:54.483Z,3.21
2023-01-20T12:09:26.134Z,3.27
2023-01-20T12:11:59.779Z,3.49
2023-01-20T12:14:32.181Z,3.69
2023-01-20T12:16:58.964Z,3.81
2023-01-20T12:19:34.034Z,3.87
2023-01-20T12:22:04.361Z,3.87
2023-01-20T12:25:10.642Z,4.03
2023-01-20T12:27:49.932Z,4.03
2023-01-20T12:30:23.484Z,3.87
2023-01-20T12:32:51.011Z,3.93
2023-01-20T12:35:17.883Z,4.08
2023-01-20T12:37:56.919Z,3.98
2023-01-20T12:40:42.351Z,3.97
2023-01-20T12:43:37.271Z,3.82
2023-01-20T12:46:10.256Z,3.76
2023-01-20T12:48:55.861Z,3.75
2023-01-20T12:51:36.169Z,3.81
2023-01-20T12:54:47.371Z,4.10
2023-01-20T12:57:33.071Z,4.15
2023-01-20T13:00:04.606Z,4.08
2023-01-20T13:02:46.724Z,4.08
2023-01-20T13:05:44.619Z,4.06
2023-01-20T13:08:36.637Z,4.04
2023-01-20T13:11:06.129Z,4.05
2023-01-20T13:13:48.079Z,3.95
2023-01-20T13:16:27.092Z,4.04
2023-01-20T13:19:04.861Z,4.03
2023-01-20T13:21:33.429Z,4.05
2023-01-20T13:24:02.026Z,4.02
2023-01-20T13:26:32.538Z,4.05
2023-01-20T13:29:00.615Z,4.16
2023-01-20T13:31:43.006Z,3.99
2023-01-20T13:34:22.147Z,4.10
2023-01-20T13:37:04.789Z,3.86
2023-01-20T13:39:33.346Z,3.97
2023-01-20T13:42:00.112Z,3.80
2023-01-20T13:44:42.157Z,3.84
2023-01-20T13:47:10.963Z,3.78
2023-01-20T13:49:43.997Z,3.71
2023-01-20T13:52:12.200Z,3.79
2023-01-20T13:54:44.664Z,3.84
2023-01-20T13:57:23.185Z,3.94
2023-01-20T13:59:50.784Z,3.80
2023-01-20T14:02:29.031Z,3.94
2023-01-20T14:04:56.392Z,3.94
2023-01-20T14:07:24.438Z,3.90
2023-01-20T14:09:53.155Z,3.89
2023-01-20T14:12:20.201Z,3.94
2023-01-20T14:14:50.421Z,3.83
2023-01-20T14:17:19.130Z,3.96
2023-01-20T14:19:50.887Z,4.10
2023-01-20T14:22:20.704Z,4.18
2023-01-20T14:24:49.089Z,4.37
2023-01-20T14:27:24.735Z,4.77
2023-01-20T14:29:53.381Z,4.61
2023-01-20T14:32:23.128Z,4.17
2023-01-20T14:34:50.705Z,4.59
2023-01-20T14:37:26.622Z,4.54
2023-01-20T14:39:55.058Z,4.48
2023-01-20T14:42:23.043Z,4.09
2023-01-20T14:44:52.324Z,3.89
2023-01-20T14:47:21.133Z,3.73
2023-01-20T14:49:49.438Z,3.60
2023-01-20T14:52:28.761Z,3.55
2023-01-20T14:54:56.542Z,3.47
2023-01-20T14:57:32.930Z,3.46
2023-01-20T15:00:05.344Z,3.47
2023-01-20T15:02:34.455Z,3.48
2023-01-20T15:05:01.525Z,3.50
2023-01-20T15:07:28.533Z,3.41
2023-01-20T15:10:08.079Z,3.47
2023-01-20T15:12:37.937Z,3.56
2023-01-20T15:15:25.104Z,3.66
2023-01-20T15:18:19.972Z,3.69
2023-01-20T15:21:15.522Z,3.60
2023-01-20T15:23:45.878Z,3.56
2023-01-20T15:26:26.482Z,3.49
2023-01-20T15:28:54.462Z,3.39
2023-01-20T15:31:21.497Z,3.42
2023-01-20T15:33:48.525Z,3.22
2023-01-20T15:36:29.482Z,3.23
2023-01-20T15:38:56.265Z,3.20
2023-01-20T15:41:24.330Z,2.93
2023-01-20T15:43:52.540Z,2.73
2023-01-20T15:46:19.566Z,2.72
2023-01-20T15:48:46.505Z,2.78
2023-01-20T15:51:15.945Z,2.76
2023-01-20T15:53:43.798Z,2.72
2023-01-20T15:56:24.652Z,2.54
2023-01-20T15:58:52.208Z,2.27
2023-01-20T16:01:24.055Z,2.20
2023-01-20T16:03:51.881Z,2.12
2023-01-20T16:06:19.911Z,2.05
2023-01-20T16:08:49.790Z,1.97
2023-01-20T16:11:17.820Z,1.91
2023-01-20T16:13:45.088Z,1.81
2023-01-20T16:16:16.233Z,1.70
2023-01-20T16:18:43.786Z,1.66
2023-01-20T16:21:12.099Z,1.59
2023-01-20T16:23:38.985Z,1.38
2023-01-20T16:26:14.931Z,1.49
2023-01-20T16:28:41.678Z,1.23
2023-01-20T16:31:11.280Z,1.30
2023-01-20T16:33:38.176Z,1.25
2023-01-20T16:36:09.842Z,1.30
2023-01-20T16:38:36.652Z,1.07
2023-01-20T16:41:12.140Z,0.98
2023-01-20T16:43:43.366Z,0.95
2023-01-20T16:46:18.033Z,0.95
2023-01-20T16:48:45.015Z,0.92
2023-01-20T16:51:19.536Z,0.82
2023-01-20T16:53:46.672Z,0.77
2023-01-20T16:56:21.619Z,0.76
2023-01-20T16:58:53.077Z,0.76
2023-01-20T17:01:24.488Z,0.72
2023-01-20T17:03:56.195Z,0.72
2023-01-20T17:06:25.816Z,0.61
2023-01-20T17:08:55.034Z,0.59
2023-01-20T17:11:22.956Z,0.55
2023-01-20T17:13:49.923Z,0.59
2023-01-20T17:16:17.484Z,0.63
2023-01-20T17:18:47.552Z,0.51
2023-01-20T17:21:14.584Z,0.44
2023-01-20T17:23:41.900Z,0.39
2023-01-20T17:26:09.510Z,0.40
2023-01-20T17:28:36.301Z,0.45
2023-01-20T17:31:04.853Z,0.48
2023-01-20T17:33:31.729Z,0.40
2023-01-20T17:36:00.256Z,0.36
2023-01-20T17:38:32.136Z,0.34
2023-01-20T17:41:03.248Z,0.27
2023-01-20T17:43:41.059Z,0.26
2023-01-20T17:46:22.615Z,0.23
2023-01-20T17:48:50.204Z,0.23
2023-01-20T17:51:25.336Z,0.11
2023-01-20T17:53:52.862Z,0.08
2023-01-20T17:56:20.800Z,0.07
2023-01-20T17:58:48.304Z,0.08
2023-01-20T18:01:20.472Z,0.13
2023-01-20T18:03:49.319Z,0.10
2023-01-20T18:06:17.817Z,0.24
2023-01-20T18:08:50.394Z,0.11
2023-01-20T18:11:19.500Z,-0.04
2023-01-20T18:13:47.335Z,-0.05
2023-01-20T18:16:15.406Z,-0.04
2023-01-20T18:18:43.523Z,0.00
2023-01-20T18:21:13.637Z,0.02
2023-01-20T18:23:42.172Z,0.12
2023-01-20T18:26:10.049Z,0.08
2023-01-20T18:28:37.929Z,0.03
2023-01-20T23:31:55.017Z,1.08
2023-01-20T23:34:22.074Z,1.10
2023-01-20T23:36:48.948Z,1.13
2023-01-20T23:39:15.881Z,1.06
2023-01-20T23:41:42.940Z,1.03
2023-01-20T23:44:10.315Z,0.97
2023-01-20T23:46:37.270Z,0.89
2023-01-20T23:49:04.094Z,0.87
2023-01-20T23:51:30.956Z,0.88
2023-01-20T23:53:58.371Z,0.96
2023-01-20T23:56:25.589Z,0.93
2023-01-20T23:58:52.770Z,0.88
